Oneida, Arkansas
Current Conditions -  °F | °C
As of 4:15 AM on Friday 19 Dec 2014 (Local Time) from KCKM Reporting Station
Overcast Overcast  
Wind Chill: 41°   Ceiling: 2600
Heat Index: 45°   Visibility: 6mi
Dew Point: 43°   Wind: 7mph
Humidity: 93%   Direction: 350°N
Pressure: 30.22"   Gusts: NA
Location:  34.46°N, 90.78°W
Report Text: KCKM 191015Z AUTO 35006KT 6SM BKN026 OVC036 07/06 A3022 RMK AO1
Loading
Personal Weather Stations






























Interactive Weather Map New forecast layout! Learn more

10-Day Weather Forecast

Advertisements
Track Severe Weather on mobile